Time;durP1;ratioP1;P1;durP2;ratioP2;P2;SDS_P1;SDS_P2;PMS_P1;PMS_P2;Temp;Humidity;BMP_temperature;BMP_pressure;BME280_temperature;BME280_humidity;BME280_pressure;Samples;Min_cycle;Max_cycle;Signal;HPM_P1;HPM_P2
2022/09/11 00:01:06;;;;;;;1.00;0.70;;;23.50;65.30;;;;;;6375778;22;20018;-86
2022/09/11 00:03:33;;;;;;;1.80;0.80;;;23.30;65.90;;;;;;6370035;22;20043;-80
2022/09/11 00:06:03;;;;;;;3.42;0.93;;;23.20;66.60;;;;;;6371651;22;20005;-79
2022/09/11 00:08:32;;;;;;;4.68;0.60;;;22.80;70.80;;;;;;6370968;22;20073;-80
2022/09/11 00:11:07;;;;;;;5.40;0.50;;;22.20;73.30;;;;;;6370290;22;20009;-81
2022/09/11 00:13:34;;;;;;;14.73;0.80;;;21.70;76.70;;;;;;6369348;22;19994;-82
2022/09/11 00:16:01;;;;;;;6.95;1.88;;;21.10;81.70;;;;;;6369973;22;20002;-82
2022/09/11 00:18:28;;;;;;;6.65;2.40;;;20.80;87.10;;;;;;6370681;22;20002;-79
2022/09/11 00:20:56;;;;;;;7.20;1.70;;;19.80;92.20;;;;;;6370461;22;20081;-81
2022/09/11 00:23:24;;;;;;;8.02;1.88;;;19.40;94.40;;;;;;6370899;22;20005;-80
2022/09/11 00:25:51;;;;;;;3.47;1.20;;;19.70;93.80;;;;;;6370422;22;20435;-80
2022/09/11 00:28:20;;;;;;;7.93;1.33;;;19.90;93.50;;;;;;6370570;22;19998;-81
2022/09/11 00:30:55;;;;;;;7.25;1.63;;;19.80;93.40;;;;;;6370817;22;20304;-81
2022/09/11 00:33:21;;;;;;;4.82;1.42;;;19.60;93.40;;;;;;6371092;22;20001;-80
2022/09/11 00:35:57;;;;;;;3.95;1.20;;;19.80;93.80;;;;;;6370552;22;19995;-80
2022/09/11 00:38:27;;;;;;;7.40;1.38;;;20.10;92.30;;;;;;6369825;22;20010;-81
2022/09/11 00:40:54;;;;;;;4.10;1.38;;;20.40;92.30;;;;;;6369839;22;20302;-81
2022/09/11 00:43:20;;;;;;;5.95;1.30;;;20.60;92.30;;;;;;6370656;22;20401;-81
2022/09/11 00:45:52;;;;;;;2.58;0.82;;;20.80;92.10;;;;;;6370206;22;20051;-80
2022/09/11 00:48:23;;;;;;;1.70;0.88;;;20.70;92.10;;;;;;6370758;22;20001;-81
2022/09/11 00:50:51;;;;;;;3.05;0.77;;;20.80;91.40;;;;;;6370576;22;19998;-81
2022/09/11 00:53:22;;;;;;;2.40;0.70;;;20.80;91.50;;;;;;6370208;22;20051;-80
2022/09/11 00:55:53;;;;;;;1.63;0.60;;;20.90;91.70;;;;;;6369697;22;19998;-80
2022/09/11 00:58:24;;;;;;;4.15;0.60;;;20.90;91.20;;;;;;6370541;22;20005;-79
2022/09/11 01:00:52;;;;;;;1.20;0.60;;;21.10;91.10;;;;;;6369582;22;20430;-79
2022/09/11 01:03:18;;;;;;;2.30;0.70;;;21.20;91.20;;;;;;6370429;22;19994;-80
2022/09/11 01:05:44;;;;;;;1.63;0.47;;;21.30;91.30;;;;;;6370447;22;19994;-81
2022/09/11 01:08:10;;;;;;;1.80;0.80;;;21.40;91.20;;;;;;6370325;22;20026;-82
2022/09/11 01:10:51;;;;;;;2.40;0.50;;;21.50;91.40;;;;;;6370276;22;20370;-81
2022/09/11 01:13:39;;;;;;;4.30;0.70;;;21.60;91.10;;;;;;6370047;22;19999;-82
2022/09/11 01:16:44;;;;;;;4.40;0.85;;;21.70;91.30;;;;;;6369912;22;19999;-82
2022/09/11 01:19:52;;;;;;;0.95;0.60;;;21.80;91.10;;;;;;6342219;22;20048;-82
2022/09/11 01:22:32;;;;;;;1.67;0.90;;;21.80;90.90;;;;;;6369564;22;20487;-81
2022/09/11 01:25:23;;;;;;;1.10;0.70;;;21.90;90.60;;;;;;6342035;22;20081;-81
2022/09/11 01:27:57;;;;;;;2.67;0.57;;;21.90;90.50;;;;;;6369685;22;20021;-82
2022/09/11 01:30:31;;;;;;;2.70;0.68;;;21.90;90.50;;;;;;6369256;22;19998;-80
2022/09/11 01:33:24;;;;;;;2.33;0.90;;;21.90;90.50;;;;;;6370056;22;20504;-80
2022/09/11 01:36:27;;;;;;;2.58;0.52;;;21.90;90.30;;;;;;6369506;22;20002;-80
2022/09/11 01:38:59;;;;;;;0.60;0.50;;;21.90;90.40;;;;;;6364760;22;20021;-81
2022/09/11 01:42:02;;;;;;;1.00;0.52;;;21.90;90.30;;;;;;6370279;22;19999;-81
2022/09/11 01:44:42;;;;;;;1.75;0.52;;;22.00;90.30;;;;;;6316165;22;20081;-85
2022/09/11 01:47:10;;;;;;;2.58;0.52;;;22.00;90.40;;;;;;6370326;22;19998;-84
2022/09/11 01:49:42;;;;;;;2.03;0.60;;;22.00;90.50;;;;;;6342174;22;20002;-85
2022/09/11 01:52:13;;;;;;;0.77;0.57;;;22.00;90.20;;;;;;6369625;22;20073;-83
2022/09/11 01:54:45;;;;;;;2.25;0.60;;;22.10;90.20;;;;;;6368969;22;20006;-82
2022/09/11 01:57:35;;;;;;;1.55;0.65;;;21.90;90.10;;;;;;6341925;22;20009;-82
2022/09/11 02:00:05;;;;;;;3.10;0.88;;;21.80;90.50;;;;;;6369501;22;20022;-82
2022/09/11 02:02:35;;;;;;;0.75;0.60;;;21.50;90.50;;;;;;6369459;22;20002;-84
2022/09/11 02:05:16;;;;;;;1.60;0.60;;;21.40;90.60;;;;;;6369877;22;20023;-84
2022/09/11 02:08:23;;;;;;;1.63;0.70;;;21.40;90.80;;;;;;6342311;22;19998;-84
2022/09/11 02:11:02;;;;;;;2.10;0.57;;;21.30;90.80;;;;;;6368701;22;19998;-84
2022/09/11 02:13:46;;;;;;;1.58;0.75;;;21.30;90.70;;;;;;6367762;22;20002;-84
2022/09/11 02:16:27;;;;;;;1.75;0.75;;;21.00;91.10;;;;;;6341426;22;20310;-85
2022/09/11 02:19:01;;;;;;;0.50;0.50;;;20.90;91.20;;;;;;6369282;22;19990;-84
2022/09/11 02:21:28;;;;;;;0.98;0.52;;;20.90;91.40;;;;;;6341921;22;20332;-84
2022/09/11 02:23:54;;;;;;;0.75;0.50;;;20.80;91.50;;;;;;6341886;22;20006;-84
2022/09/11 02:26:26;;;;;;;2.25;0.60;;;20.70;91.50;;;;;;6369865;22;19994;-84
2022/09/11 02:28:53;;;;;;;3.33;0.70;;;20.70;91.40;;;;;;6368917;22;20321;-85
2022/09/11 02:31:20;;;;;;;2.13;0.73;;;20.80;91.40;;;;;;6369982;22;20006;-83
2022/09/11 02:33:47;;;;;;;1.17;0.60;;;20.80;91.10;;;;;;6369717;22;19999;-83
2022/09/11 02:36:31;;;;;;;0.85;0.40;;;20.70;91.20;;;;;;6369620;22;20489;-84
2022/09/11 02:39:20;;;;;;;1.85;0.60;;;20.80;91.20;;;;;;6368977;22;20059;-83
2022/09/11 02:41:49;;;;;;;0.85;0.50;;;20.80;91.00;;;;;;6369357;22;20007;-83
2022/09/11 02:44:36;;;;;;;1.02;0.35;;;20.90;91.00;;;;;;6341721;22;20006;-82
2022/09/11 02:47:09;;;;;;;1.38;0.65;;;21.00;91.10;;;;;;6370194;22;20074;-82
2022/09/11 02:50:00;;;;;;;2.30;0.70;;;21.10;91.10;;;;;;6369080;22;20033;-82
2022/09/11 02:53:04;;;;;;;2.30;0.60;;;21.20;90.90;;;;;;6369659;22;20007;-82
2022/09/11 02:55:35;;;;;;;0.70;0.30;;;21.20;90.70;;;;;;6296473;22;20274;-81
2022/09/11 02:58:25;;;;;;;1.05;0.52;;;21.30;90.60;;;;;;6369241;22;19998;-82
2022/09/11 03:00:52;;;;;;;3.38;0.60;;;21.10;90.60;;;;;;6369738;22;20440;-82
2022/09/11 03:03:19;;;;;;;1.17;0.68;;;20.90;90.90;;;;;;6369643;22;20049;-83
2022/09/11 03:05:46;;;;;;;1.70;0.50;;;20.80;91.00;;;;;;6369534;22;20318;-83
2022/09/11 03:08:13;;;;;;;1.02;0.70;;;20.80;90.90;;;;;;6369274;22;20021;-83
2022/09/11 03:10:39;;;;;;;1.98;0.70;;;20.90;90.80;;;;;;6369610;22;20040;-83
2022/09/11 03:13:05;;;;;;;0.70;0.40;;;20.90;90.80;;;;;;6369111;22;20483;-83
2022/09/11 03:15:30;;;;;;;1.58;0.55;;;21.00;90.90;;;;;;6369962;22;20047;-81
2022/09/11 03:17:56;;;;;;;1.73;0.80;;;21.00;91.10;;;;;;6369065;22;19999;-81
2022/09/11 03:20:22;;;;;;;1.42;0.70;;;21.00;91.00;;;;;;6369455;22;20320;-82
2022/09/11 03:22:48;;;;;;;1.92;1.02;;;21.00;90.80;;;;;;6368852;22;20002;-82
2022/09/11 03:25:14;;;;;;;2.88;0.63;;;21.00;90.80;;;;;;6369776;22;20021;-81
2022/09/11 03:27:40;;;;;;;1.13;0.75;;;21.00;90.70;;;;;;6339710;22;20029;-81
2022/09/11 03:30:07;;;;;;;1.23;0.88;;;21.00;90.60;;;;;;6369656;22;20078;-82
2022/09/11 03:32:33;;;;;;;2.55;0.93;;;21.00;90.70;;;;;;6368617;22;20726;-82
2022/09/11 03:35:00;;;;;;;1.10;0.60;;;20.90;90.90;;;;;;6341557;22;20024;-81
2022/09/11 03:37:25;;;;;;;1.70;0.80;;;21.00;90.70;;;;;;6369220;22;20055;-80
2022/09/11 03:39:53;;;;;;;0.98;0.55;;;21.00;90.90;;;;;;6369527;22;20018;-80
2022/09/11 03:42:19;;;;;;;0.65;0.47;;;20.90;90.80;;;;;;6368474;22;20002;-80
2022/09/11 03:44:45;;;;;;;0.57;0.40;;;20.90;90.80;;;;;;6369176;22;20003;-79
2022/09/11 03:47:11;;;;;;;2.03;0.60;;;20.90;90.70;;;;;;6341365;22;20081;-81
2022/09/11 03:49:37;;;;;;;1.17;0.70;;;20.80;90.80;;;;;;6367924;22;19999;-82
2022/09/11 03:52:03;;;;;;;3.45;0.60;;;20.90;90.70;;;;;;6370759;22;20017;-82
2022/09/11 03:54:29;;;;;;;3.08;0.70;;;20.80;90.60;;;;;;6371520;22;20073;-82
2022/09/11 03:56:55;;;;;;;0.82;0.40;;;20.70;90.60;;;;;;6342867;22;20035;-84
2022/09/11 03:59:22;;;;;;;2.80;0.70;;;20.60;90.60;;;;;;6370524;22;20002;-84
2022/09/11 04:01:49;;;;;;;0.65;0.57;;;20.50;90.60;;;;;;6342369;22;20006;-85
2022/09/11 04:04:16;;;;;;;0.63;0.35;;;20.60;90.80;;;;;;6371101;22;20059;-85
2022/09/11 04:06:42;;;;;;;2.83;0.70;;;20.50;90.90;;;;;;6370505;22;20009;-85
2022/09/11 04:09:08;;;;;;;1.90;0.70;;;20.40;90.60;;;;;;6371316;22;20328;-84
2022/09/11 04:11:37;;;;;;;0.40;0.40;;;20.40;90.90;;;;;;6370588;22;20005;-84
2022/09/11 04:14:04;;;;;;;2.33;0.60;;;20.40;90.90;;;;;;6371287;22;20049;-84
2022/09/11 04:16:31;;;;;;;0.65;0.65;;;20.30;90.80;;;;;;6371386;22;20002;-84
2022/09/11 04:18:59;;;;;;;0.70;0.50;;;20.30;91.00;;;;;;6371823;22;20332;-84
2022/09/11 04:21:26;;;;;;;3.00;0.80;;;20.20;91.10;;;;;;6371221;22;20010;-84
2022/09/11 04:23:55;;;;;;;0.75;0.50;;;20.30;90.90;;;;;;6371951;22;20065;-83
2022/09/11 04:26:23;;;;;;;4.10;0.50;;;20.40;90.90;;;;;;6370144;22;20005;-84
2022/09/11 04:28:50;;;;;;;2.50;0.43;;;20.40;90.90;;;;;;6371294;22;20009;-83
2022/09/11 04:31:17;;;;;;;1.13;0.70;;;20.40;90.90;;;;;;6370564;22;20493;-83
2022/09/11 04:33:44;;;;;;;2.08;0.70;;;20.40;90.90;;;;;;6370669;22;20003;-82
2022/09/11 04:36:12;;;;;;;1.65;0.80;;;20.40;90.90;;;;;;6369760;22;20305;-81
2022/09/11 04:38:40;;;;;;;1.95;0.70;;;20.40;90.80;;;;;;6370832;22;20029;-82
2022/09/11 04:41:06;;;;;;;0.50;0.40;;;20.50;90.80;;;;;;6370155;22;20010;-81
2022/09/11 04:43:34;;;;;;;0.68;0.45;;;20.50;90.80;;;;;;6370959;22;20018;-82
2022/09/11 04:46:01;;;;;;;0.55;0.55;;;20.50;90.70;;;;;;6370046;22;20375;-82
2022/09/11 04:48:27;;;;;;;0.68;0.45;;;20.60;90.70;;;;;;6369741;22;20069;-80
2022/09/11 04:51:01;;;;;;;1.40;0.60;;;20.60;90.70;;;;;;6341214;22;20312;-81
2022/09/11 04:53:27;;;;;;;2.00;0.57;;;20.60;90.90;;;;;;6370586;22;19994;-82
2022/09/11 04:56:01;;;;;;;1.58;0.57;;;20.50;90.90;;;;;;6369895;22;20003;-84
2022/09/11 04:58:28;;;;;;;0.80;0.40;;;20.40;90.90;;;;;;6342239;22;19999;-81
2022/09/11 05:00:53;;;;;;;0.77;0.65;;;20.40;90.80;;;;;;6369830;22;19998;-82
2022/09/11 05:03:19;;;;;;;0.90;0.60;;;20.40;90.90;;;;;;6342615;22;20002;-84
2022/09/11 05:05:45;;;;;;;0.77;0.63;;;20.40;90.90;;;;;;6370135;22;20000;-82
2022/09/11 05:08:11;;;;;;;0.73;0.35;;;20.40;90.90;;;;;;6369761;22;20002;-82
2022/09/11 05:10:37;;;;;;;1.35;0.80;;;20.40;90.80;;;;;;6341390;22;20017;-82
2022/09/11 05:13:03;;;;;;;1.58;0.70;;;20.40;90.80;;;;;;6370850;22;20005;-82
2022/09/11 05:15:30;;;;;;;1.15;0.50;;;20.40;90.70;;;;;;6370028;22;20003;-82
2022/09/11 05:17:56;;;;;;;1.23;0.88;;;20.40;90.70;;;;;;6370936;22;20306;-83
2022/09/11 05:20:22;;;;;;;1.48;0.57;;;20.40;90.60;;;;;;6369503;22;20009;-83
2022/09/11 05:22:49;;;;;;;0.95;0.60;;;20.50;90.70;;;;;;6369288;22;20002;-84
2022/09/11 05:25:17;;;;;;;0.90;0.40;;;20.50;90.60;;;;;;6369546;22;19998;-84
2022/09/11 05:27:43;;;;;;;1.02;0.80;;;20.50;90.70;;;;;;6370325;22;20022;-85
2022/09/11 05:30:09;;;;;;;2.50;0.70;;;20.50;90.50;;;;;;6369820;22;20406;-84
2022/09/11 05:32:35;;;;;;;0.57;0.50;;;20.50;90.60;;;;;;6370301;22;20009;-89
2022/09/11 05:35:05;;;;;;;1.80;0.60;;;20.50;90.70;;;;;;6370360;22;20003;-85
2022/09/11 05:37:35;;;;;;;1.67;0.60;;;20.50;90.80;;;;;;6370669;22;20003;-85
2022/09/11 05:40:01;;;;;;;2.43;0.63;;;20.50;90.60;;;;;;6369462;22;20014;-85
2022/09/11 05:42:27;;;;;;;0.98;0.47;;;20.50;90.50;;;;;;6370417;22;20491;-87
2022/09/11 05:44:53;;;;;;;2.53;0.85;;;20.50;90.50;;;;;;6369942;22;20002;-84
2022/09/11 05:47:19;;;;;;;1.38;0.68;;;20.50;90.60;;;;;;6370163;22;20445;-84
2022/09/11 05:49:45;;;;;;;3.03;0.73;;;20.60;91.00;;;;;;6369842;22;20124;-85
2022/09/11 05:52:10;;;;;;;1.33;1.00;;;20.70;90.90;;;;;;6368992;22;20018;-84
2022/09/11 05:54:36;;;;;;;1.85;0.70;;;20.80;90.60;;;;;;6369519;22;20077;-84
2022/09/11 05:57:02;;;;;;;1.83;0.68;;;20.90;90.60;;;;;;6369963;22;20102;-83
2022/09/11 05:59:27;;;;;;;2.65;0.77;;;20.90;90.60;;;;;;6370225;22;20052;-84
2022/09/11 06:01:53;;;;;;;0.85;0.60;;;20.90;90.60;;;;;;6341562;22;20394;-78
2022/09/11 06:04:19;;;;;;;1.98;0.80;;;20.90;90.40;;;;;;6367349;22;20074;-81
2022/09/11 06:06:48;;;;;;;3.60;0.70;;;20.80;90.10;;;;;;6368614;22;20014;-79
2022/09/11 06:09:14;;;;;;;3.05;1.02;;;20.70;90.20;;;;;;6367371;22;20018;-85
2022/09/11 06:11:40;;;;;;;1.02;0.73;;;20.60;90.10;;;;;;6369157;22;20055;-77
2022/09/11 06:14:06;;;;;;;0.90;0.50;;;20.60;90.20;;;;;;6338331;22;20010;-77
2022/09/11 06:16:32;;;;;;;0.60;0.60;;;20.60;90.20;;;;;;6340818;22;20006;-87
2022/09/11 06:18:57;;;;;;;0.95;0.70;;;20.50;90.10;;;;;;6370353;22;20037;-79
2022/09/11 06:21:30;;;;;;;1.90;0.80;;;20.50;90.10;;;;;;6368568;22;19998;-79
2022/09/11 06:23:56;;;;;;;0.68;0.50;;;20.50;90.10;;;;;;6341891;22;20432;-79
2022/09/11 06:27:08;;;;;;;1.05;0.60;;;20.60;90.30;;;;;;6371526;22;20421;-84
2022/09/11 06:29:38;;;;;;;0.77;0.70;;;20.60;90.40;;;;;;6344704;22;20031;-85
2022/09/11 06:32:05;;;;;;;0.60;0.60;;;20.70;90.50;;;;;;6339861;22;20085;-80
2022/09/11 06:34:31;;;;;;;0.75;0.50;;;20.80;90.80;;;;;;6339944;22;20009;-79
2022/09/11 06:36:57;;;;;;;2.72;0.40;;;20.80;90.40;;;;;;6368562;22;20077;-79
2022/09/11 06:39:22;;;;;;;3.30;0.68;;;20.80;90.40;;;;;;6369378;22;20014;-79
2022/09/11 06:41:49;;;;;;;1.27;0.63;;;20.90;90.40;;;;;;6368068;22;20002;-85
2022/09/11 06:44:15;;;;;;;3.00;0.60;;;20.90;90.30;;;;;;6370070;22;19998;-86
2022/09/11 06:46:41;;;;;;;0.55;0.40;;;20.90;90.10;;;;;;6370158;22;20424;-85
2022/09/11 06:49:06;;;;;;;3.22;0.73;;;21.00;90.30;;;;;;6370356;22;20535;-85
2022/09/11 06:51:33;;;;;;;2.38;0.68;;;21.10;90.30;;;;;;6369691;22;20034;-84
2022/09/11 06:54:01;;;;;;;2.42;0.50;;;21.10;90.40;;;;;;6369310;22;20325;-84
2022/09/11 06:56:27;;;;;;;1.17;0.50;;;21.10;90.40;;;;;;6370032;22;20306;-78
2022/09/11 06:58:53;;;;;;;1.30;0.80;;;21.20;90.00;;;;;;6368982;22;20463;-78
2022/09/11 07:01:21;;;;;;;2.83;0.60;;;21.20;90.10;;;;;;6367968;22;19998;-78
2022/09/11 07:03:52;;;;;;;1.40;0.50;;;21.30;90.10;;;;;;6369544;22;20005;-78
2022/09/11 07:06:21;;;;;;;1.23;0.40;;;21.30;89.60;;;;;;6369193;22;20324;-78
2022/09/11 07:08:54;;;;;;;1.13;0.40;;;21.20;87.60;;;;;;6369948;22;20119;-79
2022/09/11 07:11:20;;;;;;;1.50;0.55;;;21.20;87.80;;;;;;6369370;22;20030;-79
2022/09/11 07:13:46;;;;;;;0.75;0.50;;;21.20;87.70;;;;;;6368653;22;20301;-78
2022/09/11 07:16:12;;;;;;;1.25;0.50;;;21.20;87.90;;;;;;6367461;22;20075;-78
2022/09/11 07:18:46;;;;;;;0.70;0.60;;;21.30;88.50;;;;;;6369404;22;20002;-78
2022/09/11 07:21:20;;;;;;;2.00;0.68;;;21.40;88.10;;;;;;6341303;22;20006;-78
2022/09/11 07:23:53;;;;;;;2.75;0.60;;;21.40;87.20;;;;;;6368431;22;19995;-79
2022/09/11 07:26:19;;;;;;;4.72;0.77;;;21.40;87.80;;;;;;6361241;22;20044;-85
2022/09/11 07:28:47;;;;;;;3.65;0.65;;;21.50;88.30;;;;;;6371456;22;19999;-86
2022/09/11 07:31:16;;;;;;;0.93;0.73;;;21.60;88.00;;;;;;6369053;22;20428;-86
2022/09/11 07:33:47;;;;;;;0.43;0.43;;;21.70;87.90;;;;;;6370310;22;20085;-86
2022/09/11 07:36:15;;;;;;;0.68;0.50;;;21.70;87.60;;;;;;6370585;22;20085;-86
2022/09/11 07:38:43;;;;;;;1.98;0.63;;;21.80;87.50;;;;;;6370914;22;20010;-87
2022/09/11 07:41:09;;;;;;;1.00;0.50;;;21.90;87.40;;;;;;6370924;22;20003;-86
2022/09/11 07:43:39;;;;;;;2.05;0.68;;;22.00;87.00;;;;;;6371086;22;20441;-83
2022/09/11 07:46:06;;;;;;;1.50;0.40;;;22.10;87.00;;;;;;6371373;22;19999;-83
2022/09/11 07:48:31;;;;;;;0.63;0.50;;;22.20;86.50;;;;;;6371495;22;20006;-83
2022/09/11 07:50:58;;;;;;;2.13;0.30;;;22.30;86.40;;;;;;6371244;22;19998;-82
2022/09/11 07:53:24;;;;;;;0.50;0.40;;;22.30;86.10;;;;;;6371825;22;20027;-82
2022/09/11 07:55:50;;;;;;;1.10;0.40;;;22.50;85.60;;;;;;6340993;22;20003;-83
2022/09/11 07:58:16;;;;;;;0.52;0.30;;;22.60;85.10;;;;;;6371280;22;20056;-81
2022/09/11 08:00:42;;;;;;;1.30;0.55;;;22.60;85.10;;;;;;6369741;22;20002;-82
2022/09/11 08:03:08;;;;;;;0.98;0.50;;;22.70;85.10;;;;;;6370362;22;20006;-82
2022/09/11 08:05:35;;;;;;;0.70;0.55;;;22.80;85.10;;;;;;6342326;22;20086;-82
2022/09/11 08:08:00;;;;;;;2.08;0.50;;;22.90;81.40;;;;;;6369515;22;20294;-81
2022/09/11 08:10:26;;;;;;;0.68;0.47;;;22.90;82.10;;;;;;6370380;22;20065;-81
2022/09/11 08:12:52;;;;;;;0.75;0.45;;;23.00;82.30;;;;;;6369647;22;19998;-79
2022/09/11 08:15:20;;;;;;;2.67;0.50;;;23.10;82.50;;;;;;6369452;22;20409;-81
2022/09/11 08:17:46;;;;;;;2.25;0.40;;;23.20;81.40;;;;;;6341278;22;20009;-81
2022/09/11 08:20:12;;;;;;;0.50;0.30;;;23.20;77.20;;;;;;6370001;22;20020;-81
2022/09/11 08:22:38;;;;;;;1.13;0.40;;;23.20;79.00;;;;;;6370537;22;20082;-85
2022/09/11 08:25:04;;;;;;;1.10;0.50;;;23.30;78.80;;;;;;6342390;22;20405;-81
2022/09/11 08:27:30;;;;;;;0.30;0.30;;;23.30;77.60;;;;;;6370212;22;20047;-81
2022/09/11 08:29:56;;;;;;;0.32;0.28;;;23.40;78.50;;;;;;6369377;22;20003;-82
2022/09/11 08:32:21;;;;;;;1.45;0.43;;;23.50;78.40;;;;;;6369562;22;20033;-81
2022/09/11 08:34:47;;;;;;;0.60;0.40;;;23.60;78.20;;;;;;6369962;22;20005;-81
2022/09/11 08:37:13;;;;;;;0.35;0.30;;;23.70;78.10;;;;;;6368607;22;20324;-83
2022/09/11 08:39:39;;;;;;;0.45;0.30;;;23.80;76.90;;;;;;6342475;22;20029;-83
2022/09/11 08:42:12;;;;;;;0.98;0.57;;;23.90;76.30;;;;;;6368328;22;20003;-77
2022/09/11 08:44:49;;;;;;;1.90;0.43;;;24.00;76.60;;;;;;6369844;22;20020;-78
2022/09/11 08:47:24;;;;;;;2.42;0.52;;;24.20;76.70;;;;;;6368908;22;20051;-76
2022/09/11 08:50:04;;;;;;;3.00;0.50;;;24.30;74.60;;;;;;6370019;22;20430;-76
2022/09/11 08:52:31;;;;;;;2.33;0.32;;;24.40;75.80;;;;;;6369926;22;20002;-75
2022/09/11 08:54:58;;;;;;;0.60;0.30;;;24.50;76.00;;;;;;6369697;22;20063;-77
2022/09/11 08:57:38;;;;;;;0.70;0.35;;;24.60;75.10;;;;;;6369170;22;20052;-77
2022/09/11 09:00:08;;;;;;;0.52;0.32;;;24.70;75.30;;;;;;6369266;22;20002;-74
2022/09/11 09:02:37;;;;;;;;;;;24.80;75.10;;;;;;6368738;22;20408;-75
2022/09/11 09:05:20;;;;;;;0.68;0.65;;;24.90;74.70;;;;;;6364116;22;20197;-75
2022/09/11 09:08:12;;;;;;;0.63;0.40;;;25.10;74.80;;;;;;6365187;22;20029;-75
2022/09/11 09:10:59;;;;;;;0.60;0.45;;;25.10;68.70;;;;;;6358148;22;20027;-75
2022/09/11 09:13:50;;;;;;;1.20;0.40;;;25.10;68.90;;;;;;6339364;22;20040;-75
2022/09/11 09:16:53;;;;;;;0.85;0.30;;;25.10;71.10;;;;;;6367984;22;20081;-75
2022/09/11 09:19:25;;;;;;;1.20;0.40;;;25.20;71.60;;;;;;6368186;22;20005;-75
2022/09/11 09:22:08;;;;;;;1.08;0.57;;;25.40;72.00;;;;;;6369174;22;20000;-74
2022/09/11 09:24:42;;;;;;;0.60;0.38;;;25.60;70.90;;;;;;6369776;22;19999;-74
2022/09/11 09:27:14;;;;;;;0.20;0.20;;;25.70;70.40;;;;;;6368679;22;20082;-74
2022/09/11 09:29:41;;;;;;;1.55;0.50;;;25.80;70.10;;;;;;6366312;22;19998;-75
2022/09/11 09:32:18;;;;;;;2.47;0.50;;;25.90;69.00;;;;;;6368955;22;20050;-77
2022/09/11 09:34:44;;;;;;;1.95;0.50;;;26.10;69.10;;;;;;6339175;22;20014;-76
2022/09/11 09:37:22;;;;;;;0.80;0.35;;;26.20;69.00;;;;;;6368670;22;20009;-75
2022/09/11 09:39:48;;;;;;;2.20;0.40;;;26.30;67.80;;;;;;6369156;22;20431;-77
2022/09/11 09:42:48;;;;;;;1.42;0.65;;;26.40;67.20;;;;;;6369483;22;20003;-77
2022/09/11 09:46:11;;;;;;;1.60;0.40;;;26.50;64.80;;;;;;6367933;22;20069;-77
2022/09/11 09:48:38;;;;;;;0.40;0.30;;;26.70;64.30;;;;;;6302168;22;20071;-74
2022/09/11 09:51:04;;;;;;;0.80;0.20;;;26.80;64.20;;;;;;6304466;22;19999;-74
2022/09/11 09:53:44;;;;;;;0.98;0.28;;;26.90;63.20;;;;;;6335886;22;20312;-75
2022/09/11 09:56:15;;;;;;;0.55;0.22;;;27.00;63.20;;;;;;6369677;22;20369;-75
2022/09/11 09:58:51;;;;;;;0.60;0.30;;;27.10;62.00;;;;;;6342354;22;20003;-74
2022/09/11 10:01:38;;;;;;;0.60;0.50;;;27.20;62.80;;;;;;6369775;22;20001;-74
2022/09/11 10:04:12;;;;;;;0.60;0.40;;;27.30;61.50;;;;;;6369808;22;20029;-75
2022/09/11 10:06:38;;;;;;;2.47;0.30;;;27.40;61.80;;;;;;6370486;22;20021;-74
2022/09/11 10:09:04;;;;;;;0.45;0.40;;;27.50;62.00;;;;;;6370042;22;20301;-74
2022/09/11 10:11:30;;;;;;;0.65;0.30;;;27.60;61.50;;;;;;6369618;22;20055;-74
2022/09/11 10:13:56;;;;;;;0.30;0.30;;;27.80;60.90;;;;;;6370137;22;20424;-74
2022/09/11 10:16:24;;;;;;;0.68;0.30;;;28.00;60.10;;;;;;6369757;22;20005;-74
2022/09/11 10:18:52;;;;;;;0.52;0.40;;;28.00;58.90;;;;;;6342174;22;20009;-74
2022/09/11 10:21:32;;;;;;;1.20;0.50;;;28.10;57.60;;;;;;6370144;22;20009;-74
2022/09/11 10:24:02;;;;;;;0.60;0.40;;;28.20;58.30;;;;;;6370003;22;20169;-75
2022/09/11 10:26:38;;;;;;;0.50;0.40;;;28.30;57.90;;;;;;6368427;22;20103;-74
2022/09/11 10:29:23;;;;;;;0.30;0.30;;;28.30;57.90;;;;;;6369399;22;20085;-74
2022/09/11 10:31:55;;;;;;;0.20;0.20;;;28.40;56.50;;;;;;6370094;22;20025;-74
2022/09/11 10:34:24;;;;;;;0.30;0.30;;;28.50;56.60;;;;;;6369667;22;20300;-75
2022/09/11 10:37:01;;;;;;;0.28;0.25;;;28.60;56.50;;;;;;6370483;22;20053;-74
2022/09/11 10:39:30;;;;;;;0.35;0.30;;;28.70;56.80;;;;;;6342045;22;20118;-74
2022/09/11 10:41:58;;;;;;;0.93;0.60;;;28.90;57.50;;;;;;6369661;22;19998;-74
2022/09/11 10:44:25;;;;;;;1.85;0.65;;;29.00;57.20;;;;;;6369883;22;20357;-74
2022/09/11 10:50:33;;;;;;;0.50;0.30;;;29.20;55.80;;;;;;6244160;23;20151;-81
2022/09/11 10:53:21;;;;;;;0.47;0.22;;;29.30;53.80;;;;;;6338411;22;20002;-74
2022/09/11 10:55:57;;;;;;;2.75;0.40;;;29.50;55.40;;;;;;6367983;22;20006;-74
2022/09/11 10:58:28;;;;;;;0.60;0.20;;;29.60;55.00;;;;;;6370055;22;20371;-74
2022/09/11 11:00:53;;;;;;;0.98;0.50;;;29.70;55.60;;;;;;6371842;22;20077;-74
2022/09/11 11:03:26;;;;;;;1.15;0.30;;;29.80;55.10;;;;;;6371565;22;20037;-74
2022/09/11 11:06:13;;;;;;;0.52;0.38;;;29.80;55.00;;;;;;6371338;22;20085;-74
2022/09/11 11:09:06;;;;;;;1.77;0.30;;;29.90;53.60;;;;;;6371268;22;19998;-74
2022/09/11 11:11:49;;;;;;;0.57;0.30;;;30.00;53.00;;;;;;6370813;22;19998;-74
2022/09/11 11:14:21;;;;;;;1.02;0.38;;;30.10;53.60;;;;;;6371204;22;20387;-74
2022/09/11 11:17:12;;;;;;;1.45;0.30;;;30.30;53.80;;;;;;6343199;22;20055;-74
2022/09/11 11:19:55;;;;;;;0.30;0.30;;;30.50;53.40;;;;;;6371133;22;19999;-74
2022/09/11 11:23:11;;;;;;;0.47;0.30;;;30.70;53.30;;;;;;6370615;22;20026;-74
2022/09/11 11:25:53;;;;;;;1.40;0.40;;;30.90;52.60;;;;;;6344081;22;20006;-74
2022/09/11 11:28:44;;;;;;;0.30;0.20;;;31.00;50.10;;;;;;6371513;22;20044;-74
2022/09/11 11:31:41;;;;;;;0.30;0.20;;;31.20;51.00;;;;;;6370655;22;19998;-74
2022/09/11 11:34:18;;;;;;;0.32;0.30;;;31.20;49.60;;;;;;6370472;22;19994;-74
2022/09/11 11:36:49;;;;;;;0.60;0.30;;;31.40;50.50;;;;;;6371422;22;19999;-74
2022/09/11 11:39:30;;;;;;;0.30;0.30;;;31.40;50.20;;;;;;6371045;22;20010;-74
2022/09/11 11:42:13;;;;;;;0.35;0.30;;;31.60;49.60;;;;;;6342948;22;20663;-75
2022/09/11 11:45:03;;;;;;;0.55;0.32;;;31.80;48.60;;;;;;6371459;22;19998;-74
2022/09/11 11:47:41;;;;;;;0.93;0.30;;;32.10;48.70;;;;;;6343411;22;20374;-74
2022/09/11 11:50:23;;;;;;;0.50;0.20;;;32.20;47.90;;;;;;6371206;22;20078;-74
2022/09/11 11:52:58;;;;;;;0.75;0.30;;;32.20;47.20;;;;;;6371227;22;19998;-74
2022/09/11 11:55:26;;;;;;;0.47;0.20;;;32.40;46.50;;;;;;6371423;22;20396;-74
2022/09/11 11:58:06;;;;;;;0.40;0.20;;;32.60;47.10;;;;;;6371304;22;20006;-74
2022/09/11 12:00:42;;;;;;;0.20;0.20;;;32.80;47.00;;;;;;6370649;22;20006;-74
2022/09/11 12:03:31;;;;;;;1.27;0.30;;;32.90;45.80;;;;;;6371023;22;20006;-74
2022/09/11 12:05:57;;;;;;;2.55;0.30;;;33.10;46.50;;;;;;6371215;22;20282;-74
2022/09/11 12:08:29;;;;;;;0.75;0.30;;;33.10;46.20;;;;;;6371204;22;20052;-75
2022/09/11 12:11:17;;;;;;;0.30;0.22;;;33.20;45.40;;;;;;6369853;22;19999;-74
2022/09/11 12:13:50;;;;;;;0.47;0.30;;;33.20;45.30;;;;;;6370887;22;20047;-75
2022/09/11 12:16:34;;;;;;;0.55;0.40;;;33.40;47.00;;;;;;6370638;22;19995;-74
2022/09/11 12:19:12;;;;;;;1.95;0.40;;;33.50;46.90;;;;;;6343212;22;20025;-74
2022/09/11 12:21:40;;;;;;;2.47;0.30;;;33.60;46.30;;;;;;6370762;22;20055;-75
2022/09/11 12:24:06;;;;;;;0.20;0.15;;;33.60;46.50;;;;;;6371104;22;20412;-74
2022/09/11 12:26:32;;;;;;;0.52;0.28;;;33.60;46.10;;;;;;6371173;22;19995;-74
2022/09/11 12:29:39;;;;;;;0.93;0.30;;;33.70;45.50;;;;;;6371081;22;19999;-74
2022/09/11 12:32:15;;;;;;;2.30;0.30;;;33.70;45.20;;;;;;6342264;22;20009;-75
2022/09/11 12:34:43;;;;;;;0.20;0.20;;;33.80;45.70;;;;;;6370409;22;20002;-74
2022/09/11 12:37:34;;;;;;;0.30;0.20;;;33.80;45.40;;;;;;6370809;22;20009;-74
2022/09/11 12:40:15;;;;;;;1.33;0.32;;;33.90;45.00;;;;;;6371139;22;20010;-74
2022/09/11 12:42:56;;;;;;;1.05;0.20;;;33.90;43.30;;;;;;6370103;22;20071;-74
2022/09/11 12:45:37;;;;;;;0.43;0.20;;;34.00;43.00;;;;;;6370924;22;20404;-74
2022/09/11 12:48:19;;;;;;;0.30;0.10;;;33.90;44.00;;;;;;6370904;22;20051;-74
2022/09/11 12:50:59;;;;;;;0.57;0.40;;;33.80;43.50;;;;;;6370566;22;20009;-75
2022/09/11 12:53:30;;;;;;;0.30;0.30;;;33.90;44.10;;;;;;6371176;22;20022;-75
2022/09/11 12:55:59;;;;;;;0.25;0.20;;;33.80;43.80;;;;;;6370693;22;20343;-74
2022/09/11 12:58:36;;;;;;;0.22;0.20;;;33.70;43.20;;;;;;6370657;22;20002;-74
2022/09/11 13:01:13;;;;;;;0.40;0.30;;;33.70;42.90;;;;;;6370831;22;20006;-74
2022/09/11 13:04:02;;;;;;;0.35;0.35;;;33.50;42.60;;;;;;6370719;22;20376;-74
2022/09/11 13:06:56;;;;;;;0.80;0.35;;;33.30;43.40;;;;;;6370794;22;19996;-75
2022/09/11 13:09:27;;;;;;;0.32;0.10;;;33.10;42.80;;;;;;6340705;22;20006;-74
2022/09/11 13:11:56;;;;;;;0.10;0.10;;;32.80;43.60;;;;;;6370260;22;19998;-74
2022/09/11 13:14:27;;;;;;;0.57;0.20;;;32.50;43.50;;;;;;6370937;22;20576;-74
2022/09/11 13:17:00;;;;;;;0.25;0.10;;;32.10;43.60;;;;;;6370871;22;20412;-74
2022/09/11 13:19:36;;;;;;;0.10;0.10;;;31.70;42.80;;;;;;6370578;22;20044;-74